createdAt,value
2024-01-17T00:00:10.815Z,-2.50
2024-01-17T00:02:37.800Z,-2.51
2024-01-17T00:05:08.204Z,-2.58
2024-01-17T00:07:34.626Z,-2.65
2024-01-17T00:10:01.125Z,-2.70
2024-01-17T00:12:27.745Z,-2.86
2024-01-17T00:14:54.325Z,-2.30
2024-01-17T00:17:20.821Z,-2.50
2024-01-17T00:19:47.347Z,-2.62
2024-01-17T00:22:18.414Z,-2.54
2024-01-17T00:24:44.865Z,-2.62
2024-01-17T00:27:14.261Z,-2.53
2024-01-17T00:29:43.354Z,-2.69
2024-01-17T00:32:09.898Z,-2.77
2024-01-17T00:34:40.218Z,-2.85
2024-01-17T00:37:07.146Z,-2.93
2024-01-17T00:39:33.691Z,-2.93
2024-01-17T00:42:00.913Z,-2.84
2024-01-17T00:44:29.461Z,-2.87
2024-01-17T00:46:56.414Z,-2.84
2024-01-17T00:49:22.973Z,-2.69
2024-01-17T00:51:49.435Z,-2.85
2024-01-17T00:54:15.917Z,-2.92
2024-01-17T00:56:42.418Z,-2.89
2024-01-17T00:59:08.954Z,-2.97
2024-01-17T01:01:35.509Z,-2.93
2024-01-17T01:04:02.385Z,-3.04
2024-01-17T01:06:28.975Z,-2.95
2024-01-17T01:08:55.504Z,-2.70
2024-01-17T01:11:22.230Z,-2.83
2024-01-17T01:13:48.736Z,-3.12
2024-01-17T01:16:15.630Z,-3.11
2024-01-17T01:18:42.215Z,-3.13
2024-01-17T01:21:08.832Z,-3.28
2024-01-17T01:23:35.433Z,-3.40
2024-01-17T01:26:01.958Z,-3.59
2024-01-17T01:28:28.802Z,-3.35
2024-01-17T01:30:55.322Z,-3.19
2024-01-17T01:33:22.540Z,-3.36
2024-01-17T01:35:49.888Z,-3.54
2024-01-17T01:38:16.416Z,-3.57
2024-01-17T01:40:43.814Z,-3.57
2024-01-17T01:43:24.236Z,-3.77
2024-01-17T01:46:22.054Z,-3.52
2024-01-17T01:48:50.165Z,-3.56
2024-01-17T01:51:17.665Z,-3.74
2024-01-17T01:53:48.464Z,-3.61
2024-01-17T01:56:21.085Z,-3.66
2024-01-17T01:58:50.163Z,-3.76
2024-01-17T02:01:17.470Z,-3.71
2024-01-17T02:03:45.928Z,-3.84
2024-01-17T02:06:14.614Z,-3.89
2024-01-17T02:08:41.649Z,-3.98
2024-01-17T02:11:09.937Z,-4.03
2024-01-17T02:13:36.988Z,-4.16
2024-01-17T02:16:04.174Z,-4.20
2024-01-17T02:18:30.853Z,-3.97
2024-01-17T02:20:57.730Z,-3.97
2024-01-17T02:23:30.494Z,-3.98
2024-01-17T02:25:58.880Z,-3.72
2024-01-17T02:28:31.316Z,-3.38
2024-01-17T02:30:59.397Z,-3.70
2024-01-17T02:33:26.594Z,-3.91
2024-01-17T02:35:53.308Z,-3.99
2024-01-17T02:38:19.822Z,-4.07
2024-01-17T02:40:46.450Z,-4.13
2024-01-17T02:43:12.948Z,-4.06
2024-01-17T02:45:39.473Z,-4.24
2024-01-17T02:48:06.205Z,-4.26
2024-01-17T02:50:33.167Z,-3.74
2024-01-17T02:52:59.794Z,-3.99
2024-01-17T02:55:26.261Z,-3.94
2024-01-17T02:57:52.961Z,-3.77
2024-01-17T03:00:21.096Z,-3.97
2024-01-17T03:02:48.304Z,-4.17
2024-01-17T03:05:15.078Z,-4.30
2024-01-17T03:07:41.661Z,-4.26
2024-01-17T03:10:10.118Z,-4.38
2024-01-17T03:12:36.940Z,-4.46
2024-01-17T03:15:03.696Z,-3.97
2024-01-17T03:17:30.245Z,-4.07
2024-01-17T03:19:56.919Z,-4.16
2024-01-17T03:22:23.378Z,-4.29
2024-01-17T03:24:49.871Z,-4.46
2024-01-17T03:27:16.280Z,-4.58
2024-01-17T03:29:45.849Z,-4.62
2024-01-17T03:32:12.280Z,-4.74
2024-01-17T03:34:38.829Z,-4.80
2024-01-17T03:37:07.770Z,-4.58
2024-01-17T03:39:35.335Z,-4.27
2024-01-17T03:42:01.968Z,-4.45
2024-01-17T03:44:28.608Z,-4.52
2024-01-17T03:46:55.282Z,-4.60
2024-01-17T03:49:21.925Z,-4.68
2024-01-17T03:51:48.468Z,-4.69
2024-01-17T03:54:15.057Z,-4.79
2024-01-17T03:56:41.704Z,-4.80
2024-01-17T03:59:08.283Z,-4.65
2024-01-17T04:01:45.368Z,-4.52
2024-01-17T04:04:15.096Z,-4.57
2024-01-17T04:06:41.706Z,-4.42
2024-01-17T04:09:08.858Z,-4.31
2024-01-17T04:11:36.509Z,-4.32
2024-01-17T04:14:03.387Z,-4.25
2024-01-17T04:16:29.870Z,-4.57
2024-01-17T04:18:56.623Z,-4.76
2024-01-17T04:21:23.413Z,-4.77
2024-01-17T04:23:50.852Z,-4.48
2024-01-17T04:26:21.397Z,-4.29
2024-01-17T04:28:47.876Z,-4.54
2024-01-17T04:31:29.139Z,-4.59
2024-01-17T04:33:56.787Z,-4.46
2024-01-17T04:36:25.373Z,-4.62
2024-01-17T04:38:51.900Z,-4.68
2024-01-17T04:41:19.409Z,-4.83
2024-01-17T04:43:46.350Z,-4.98
2024-01-17T04:46:15.760Z,-4.90
2024-01-17T04:48:43.319Z,-4.95
2024-01-17T04:51:13.735Z,-4.83
2024-01-17T04:53:43.354Z,-4.73
2024-01-17T04:56:10.770Z,-4.58
2024-01-17T04:58:37.944Z,-4.76
2024-01-17T05:01:06.611Z,-4.38
2024-01-17T05:03:34.958Z,-4.64
2024-01-17T05:06:02.833Z,-4.74
2024-01-17T05:08:30.215Z,-4.63
2024-01-17T05:10:56.791Z,-4.58
2024-01-17T05:13:23.432Z,-4.70
2024-01-17T05:15:49.863Z,-4.73
2024-01-17T05:18:16.407Z,-4.71
2024-01-17T05:20:43.135Z,-4.72
2024-01-17T05:23:09.659Z,-4.68
2024-01-17T05:25:36.185Z,-4.78
2024-01-17T05:28:02.644Z,-4.74
2024-01-17T05:30:29.266Z,-4.39
2024-01-17T05:32:56.962Z,-4.45
2024-01-17T05:35:23.701Z,-4.56
2024-01-17T05:37:50.636Z,-4.76
2024-01-17T05:40:17.349Z,-4.76
2024-01-17T05:42:46.219Z,-4.73
2024-01-17T05:45:13.068Z,-4.93
2024-01-17T05:47:40.081Z,-4.91
2024-01-17T05:50:13.573Z,-4.78
2024-01-17T05:52:41.598Z,-4.95
2024-01-17T05:55:09.537Z,-4.77
2024-01-17T05:57:39.900Z,-4.74
2024-01-17T06:00:11.154Z,-4.75
2024-01-17T06:02:39.233Z,-4.90
2024-01-17T06:05:06.960Z,-4.81
2024-01-17T06:07:33.486Z,-4.87
2024-01-17T06:10:00.146Z,-4.92
2024-01-17T06:12:26.628Z,-5.00
2024-01-17T06:14:53.313Z,-5.01
2024-01-17T06:17:19.870Z,-4.86
2024-01-17T06:19:46.990Z,-4.88
2024-01-17T06:22:19.618Z,-4.93
2024-01-17T06:24:47.250Z,-4.89
2024-01-17T06:27:15.523Z,-4.64
2024-01-17T06:29:43.331Z,-4.63
2024-01-17T06:32:09.860Z,-4.37
2024-01-17T06:34:38.262Z,-4.21
2024-01-17T06:37:05.242Z,-4.20
2024-01-17T06:39:32.745Z,-4.11
2024-01-17T06:42:00.114Z,-4.19
2024-01-17T06:44:29.076Z,-4.33
2024-01-17T06:46:56.680Z,-4.44
2024-01-17T06:49:23.870Z,-4.59
2024-01-17T06:51:50.712Z,-4.51
2024-01-17T06:54:17.252Z,-4.58
2024-01-17T06:56:43.849Z,-2.88
2024-01-17T06:59:11.065Z,-3.50
2024-01-17T07:01:39.066Z,-3.89
2024-01-17T07:04:05.513Z,-4.03
2024-01-17T07:06:32.243Z,-4.12
2024-01-17T07:09:00.226Z,-4.20
2024-01-17T07:11:27.025Z,-4.06
2024-01-17T07:13:53.671Z,-4.31
2024-01-17T07:16:20.457Z,-4.37
2024-01-17T07:18:46.995Z,-4.06
2024-01-17T07:21:13.724Z,-4.28
2024-01-17T07:23:40.341Z,-4.32
2024-01-17T07:26:07.754Z,-4.27
2024-01-17T07:28:34.184Z,-4.20
2024-01-17T07:31:00.981Z,-4.22
2024-01-17T07:33:27.558Z,-4.14
2024-01-17T07:35:54.315Z,-4.11
2024-01-17T07:38:20.868Z,-4.13
2024-01-17T07:40:47.439Z,-4.06
2024-01-17T07:43:13.878Z,-3.98
2024-01-17T07:45:40.349Z,-3.67
2024-01-17T07:48:06.999Z,-3.66
2024-01-17T07:50:33.727Z,-3.54
2024-01-17T07:53:02.173Z,-3.23
2024-01-17T07:55:29.587Z,-3.15
2024-01-17T07:57:56.189Z,-3.10
2024-01-17T08:00:23.408Z,-2.96
2024-01-17T08:02:50.256Z,-2.93
2024-01-17T08:05:17.098Z,-2.64
2024-01-17T08:07:43.690Z,-2.62
2024-01-17T08:10:10.145Z,-2.41
2024-01-17T08:12:36.612Z,-2.25
2024-01-17T08:15:03.243Z,-1.90
2024-01-17T08:17:31.363Z,-1.92
2024-01-17T08:19:59.381Z,-1.97
2024-01-17T08:22:25.936Z,-1.96
2024-01-17T08:24:52.543Z,-1.93
2024-01-17T08:27:19.150Z,-1.86
2024-01-17T08:29:47.339Z,-1.65
2024-01-17T08:32:14.456Z,-1.65
2024-01-17T08:34:41.113Z,-1.60
2024-01-17T08:37:07.620Z,-1.72
2024-01-17T08:39:34.057Z,-1.52
2024-01-17T08:42:00.534Z,-1.51
2024-01-17T08:44:27.432Z,-1.15
2024-01-17T08:46:54.803Z,-1.08
2024-01-17T08:49:21.783Z,-1.08
2024-01-17T08:51:48.354Z,-1.17
2024-01-17T08:54:14.879Z,-0.93
2024-01-17T08:56:41.417Z,-0.91
2024-01-17T08:59:07.949Z,-0.87
2024-01-17T09:01:34.534Z,-0.84
2024-01-17T09:04:00.976Z,-0.74
2024-01-17T09:06:27.479Z,-0.79
2024-01-17T09:08:54.040Z,-0.63
2024-01-17T09:11:20.721Z,-0.55
2024-01-17T09:13:49.416Z,-0.55
2024-01-17T09:16:16.012Z,-0.63
2024-01-17T09:18:42.747Z,-0.50
2024-01-17T09:21:09.348Z,-0.11
2024-01-17T09:23:35.818Z,-0.07
2024-01-17T09:26:05.200Z,-0.03
2024-01-17T09:28:32.749Z,0.47
2024-01-17T09:30:59.207Z,0.38
2024-01-17T09:33:29.205Z,0.37
2024-01-17T09:36:02.089Z,0.33
2024-01-17T09:38:29.804Z,0.53
2024-01-17T09:40:56.719Z,0.60
2024-01-17T09:43:23.912Z,0.67
2024-01-17T09:45:50.784Z,0.59
2024-01-17T09:48:18.572Z,0.79
2024-01-17T09:50:47.644Z,0.74
2024-01-17T09:53:14.575Z,0.75
2024-01-17T09:55:42.279Z,0.77
2024-01-17T09:58:11.565Z,1.25
2024-01-17T10:00:41.108Z,0.99
2024-01-17T10:03:09.183Z,0.82
2024-01-17T10:05:37.439Z,1.06
2024-01-17T10:08:04.526Z,1.11
2024-01-17T10:10:32.095Z,1.02
2024-01-17T10:12:58.889Z,1.02
2024-01-17T10:15:25.490Z,1.04
2024-01-17T10:17:55.482Z,1.06
2024-01-17T10:20:22.387Z,1.40
2024-01-17T10:22:48.849Z,0.96
2024-01-17T10:25:15.302Z,1.38
2024-01-17T10:27:42.289Z,1.21
2024-01-17T10:30:11.414Z,1.54
2024-01-17T10:32:38.805Z,2.15
2024-01-17T10:35:07.858Z,1.92
2024-01-17T10:37:36.166Z,1.74
2024-01-17T10:40:12.901Z,1.62
2024-01-17T10:42:42.309Z,2.31
2024-01-17T10:45:09.764Z,1.97
2024-01-17T10:47:36.721Z,1.79
2024-01-17T10:50:03.472Z,2.54
2024-01-17T10:52:37.534Z,2.01
2024-01-17T10:55:06.199Z,1.75
2024-01-17T10:57:35.356Z,2.24
2024-01-17T11:00:07.453Z,2.55
2024-01-17T11:02:34.846Z,2.33
2024-01-17T11:05:08.566Z,2.99
2024-01-17T11:07:37.072Z,1.94
2024-01-17T11:10:05.505Z,1.93
2024-01-17T11:12:33.393Z,1.54
2024-01-17T11:15:08.576Z,1.53
2024-01-17T11:17:37.159Z,2.11
2024-01-17T11:20:09.880Z,1.56
2024-01-17T11:22:37.737Z,2.41
2024-01-17T11:25:18.638Z,1.90
2024-01-17T11:28:08.474Z,2.38
2024-01-17T11:33:32.544Z,1.73
2024-01-17T11:35:59.336Z,1.84
2024-01-17T11:38:25.766Z,1.44
2024-01-17T11:41:09.709Z,1.41
2024-01-17T11:43:42.578Z,1.45
2024-01-17T11:46:11.443Z,1.42
2024-01-17T11:48:40.804Z,1.47
2024-01-17T11:51:13.605Z,1.69
2024-01-17T11:53:42.877Z,1.86
2024-01-17T11:56:11.237Z,1.56
2024-01-17T11:58:43.539Z,1.39
2024-01-17T12:01:28.156Z,1.46
2024-01-17T12:03:54.627Z,1.36
2024-01-17T12:06:24.507Z,1.50
2024-01-17T12:08:56.403Z,1.89
2024-01-17T12:11:24.013Z,1.65
2024-01-17T12:13:54.581Z,1.76
2024-01-17T12:16:24.208Z,1.33
2024-01-17T12:19:01.702Z,1.22
2024-01-17T12:21:30.341Z,1.69
2024-01-17T12:23:57.386Z,1.40
2024-01-17T12:26:23.896Z,1.34
2024-01-17T12:28:50.700Z,1.38
2024-01-17T12:31:17.607Z,1.30
2024-01-17T12:33:46.490Z,1.44
2024-01-17T12:36:13.408Z,1.30
2024-01-17T12:38:40.830Z,1.51
2024-01-17T12:41:08.944Z,1.84
2024-01-17T12:43:36.914Z,1.56
2024-01-17T12:46:08.376Z,1.64
2024-01-17T12:48:36.812Z,1.52
2024-01-17T12:51:08.961Z,1.65
2024-01-17T12:53:36.168Z,1.74
2024-01-17T12:56:02.861Z,1.83
2024-01-17T12:58:31.083Z,1.60
2024-01-17T13:00:58.224Z,1.66
2024-01-17T13:03:25.552Z,1.57
2024-01-17T13:06:03.283Z,1.95
2024-01-17T13:08:30.500Z,1.56
2024-01-17T13:10:57.068Z,1.58
2024-01-17T13:13:30.594Z,2.46
2024-01-17T13:16:00.820Z,1.61
2024-01-17T13:18:29.524Z,1.47
2024-01-17T13:21:09.934Z,1.78
2024-01-17T13:23:36.409Z,1.71
2024-01-17T13:26:02.919Z,1.79
2024-01-17T13:28:29.350Z,1.85
2024-01-17T13:30:55.796Z,1.81
2024-01-17T13:33:23.277Z,1.75
2024-01-17T13:35:51.781Z,1.93
2024-01-17T13:38:18.335Z,1.98
2024-01-17T13:40:45.068Z,1.72
2024-01-17T13:43:12.396Z,1.67
2024-01-17T13:45:38.911Z,1.54
2024-01-17T13:48:06.237Z,1.59
2024-01-17T13:50:33.621Z,1.63
2024-01-17T13:53:08.728Z,1.81
2024-01-17T13:55:35.410Z,1.65
2024-01-17T13:58:02.048Z,1.44
2024-01-17T14:00:28.727Z,1.33
2024-01-17T14:02:59.626Z,1.29
2024-01-17T14:05:26.416Z,1.42
2024-01-17T14:07:52.886Z,1.44
2024-01-17T14:10:20.258Z,1.41
2024-01-17T14:12:46.706Z,1.69
2024-01-17T14:15:13.493Z,1.37
2024-01-17T14:17:40.149Z,1.43
2024-01-17T14:20:14.492Z,1.20
2024-01-17T14:22:40.897Z,1.21
2024-01-17T14:25:11.995Z,1.24
2024-01-17T14:27:38.434Z,1.18
2024-01-17T14:30:05.412Z,1.24
2024-01-17T14:32:32.493Z,1.92
2024-01-17T14:34:58.951Z,1.44
2024-01-17T14:37:25.386Z,2.44
2024-01-17T14:39:51.790Z,1.60
2024-01-17T14:42:24.060Z,1.47
2024-01-17T14:44:51.966Z,1.51
2024-01-17T14:47:18.597Z,1.31
2024-01-17T14:49:45.058Z,0.94
2024-01-17T14:52:11.511Z,1.22
2024-01-17T14:54:38.073Z,0.80
2024-01-17T14:57:05.643Z,0.85
2024-01-17T14:59:32.169Z,1.41
2024-01-17T15:01:58.653Z,1.60
2024-01-17T15:04:25.117Z,1.13
2024-01-17T15:06:51.995Z,1.09
2024-01-17T15:09:18.755Z,0.95
2024-01-17T15:11:46.015Z,0.58
2024-01-17T15:14:12.700Z,0.57
2024-01-17T15:16:39.447Z,0.17
2024-01-17T15:19:10.580Z,-0.01
2024-01-17T15:21:37.431Z,0.05
2024-01-17T15:24:04.374Z,-0.22
2024-01-17T15:26:31.828Z,-0.23
2024-01-17T15:28:58.321Z,-0.45
2024-01-17T15:31:24.780Z,-0.27
2024-01-17T15:33:51.338Z,-0.21
2024-01-17T15:36:19.582Z,-0.37
2024-01-17T15:38:49.296Z,-0.44
2024-01-17T15:41:16.331Z,-0.40
2024-01-17T15:43:43.012Z,-0.20
2024-01-17T15:46:09.819Z,-0.23
2024-01-17T15:48:36.490Z,-0.27
2024-01-17T15:51:03.413Z,-0.29
2024-01-17T15:53:31.226Z,-0.18
2024-01-17T15:55:57.758Z,-0.22
2024-01-17T15:58:25.577Z,-0.17
2024-01-17T16:00:52.100Z,-0.33
2024-01-17T16:03:18.614Z,-0.26
2024-01-17T16:05:45.140Z,-0.31
2024-01-17T16:08:11.626Z,-0.27
2024-01-17T16:10:38.129Z,-0.24
2024-01-17T16:13:04.756Z,-0.31
2024-01-17T16:15:33.934Z,-0.38
2024-01-17T16:18:05.469Z,-0.23
2024-01-17T16:20:32.200Z,-0.35
2024-01-17T16:23:01.474Z,-0.26
2024-01-17T16:25:28.048Z,-0.29
2024-01-17T16:27:56.013Z,-0.30
2024-01-17T16:30:24.057Z,-0.34
2024-01-17T16:32:50.682Z,-0.25
2024-01-17T16:35:17.274Z,-0.28
2024-01-17T16:37:43.805Z,-0.17
2024-01-17T16:40:12.047Z,-0.22
2024-01-17T16:42:39.027Z,-0.27
2024-01-17T16:45:06.606Z,-0.23
2024-01-17T16:47:33.234Z,-0.31
2024-01-17T16:50:00.069Z,-0.33
2024-01-17T16:52:26.572Z,-0.24
2024-01-17T16:54:52.991Z,-0.32
2024-01-17T16:57:20.595Z,-0.27
2024-01-17T16:59:48.483Z,-0.28
2024-01-17T17:02:14.992Z,-0.10
2024-01-17T17:04:41.543Z,-0.13
2024-01-17T17:07:08.002Z,-0.02
2024-01-17T17:09:35.046Z,-0.11
2024-01-17T17:12:01.621Z,-0.14
2024-01-17T17:14:28.591Z,-0.10
2024-01-17T17:16:55.057Z,-0.10
2024-01-17T17:19:21.686Z,-0.08
2024-01-17T17:21:49.165Z,-0.14
2024-01-17T17:24:15.764Z,-0.21
2024-01-17T17:26:43.146Z,-0.10
2024-01-17T17:29:09.663Z,-0.28
2024-01-17T17:31:36.127Z,-0.14
2024-01-17T17:34:02.669Z,-0.27
2024-01-17T17:36:29.689Z,-0.25
2024-01-17T17:38:56.249Z,-0.15
2024-01-17T17:41:22.671Z,-0.01
2024-01-17T17:43:49.149Z,0.16
2024-01-17T17:46:15.576Z,0.00
2024-01-17T17:48:44.807Z,-0.04
2024-01-17T17:51:13.823Z,0.05
2024-01-17T17:53:40.900Z,0.13
2024-01-17T17:56:07.452Z,0.07
2024-01-17T17:58:34.014Z,0.11
2024-01-17T18:01:01.178Z,0.20
2024-01-17T18:03:28.596Z,0.17
2024-01-17T18:05:55.308Z,0.17
2024-01-17T18:08:21.880Z,0.30
2024-01-17T18:10:48.781Z,0.29
2024-01-17T18:13:15.242Z,0.30
2024-01-17T18:15:41.704Z,0.30
2024-01-17T18:18:08.253Z,0.31
2024-01-17T18:20:35.021Z,0.30
2024-01-17T18:23:01.595Z,0.37
2024-01-17T18:25:28.564Z,0.39
2024-01-17T18:27:55.040Z,0.43
2024-01-17T18:30:21.578Z,0.39
2024-01-17T18:32:50.429Z,0.53
2024-01-17T18:35:17.133Z,0.33
2024-01-17T18:37:43.649Z,0.45
2024-01-17T18:40:13.171Z,0.48
2024-01-17T18:42:40.334Z,0.37
2024-01-17T18:45:07.336Z,0.55
2024-01-17T18:47:33.893Z,0.54
2024-01-17T18:50:00.551Z,0.77
2024-01-17T18:52:27.168Z,0.74
2024-01-17T18:54:53.699Z,0.70
2024-01-17T18:57:20.296Z,0.71
2024-01-17T18:59:48.943Z,0.77
2024-01-17T19:02:16.100Z,0.77
2024-01-17T19:04:45.823Z,0.81
2024-01-17T19:07:12.698Z,0.84
2024-01-17T19:09:39.628Z,0.83
2024-01-17T19:12:08.736Z,0.93
2024-01-17T19:14:35.816Z,0.93
2024-01-17T19:17:02.440Z,0.90
2024-01-17T19:19:29.262Z,0.95
2024-01-17T19:21:55.840Z,0.96
2024-01-17T19:24:22.457Z,1.04
2024-01-17T19:26:49.283Z,1.09
2024-01-17T19:29:16.074Z,1.22
2024-01-17T19:31:42.615Z,1.19
2024-01-17T19:34:09.771Z,1.11
2024-01-17T19:36:36.384Z,1.21
2024-01-17T19:39:03.238Z,1.18
2024-01-17T19:41:29.900Z,1.16
2024-01-17T19:43:56.362Z,1.25
2024-01-17T19:46:22.809Z,1.22
2024-01-17T19:48:50.801Z,1.24
2024-01-17T19:51:18.078Z,1.14
2024-01-17T19:53:44.782Z,1.08
2024-01-17T19:56:11.284Z,1.13
2024-01-17T19:58:37.735Z,1.19
2024-01-17T20:01:04.536Z,1.28
2024-01-17T20:03:31.782Z,1.19
2024-01-17T20:06:01.046Z,1.19
2024-01-17T20:08:27.673Z,1.26
2024-01-17T20:10:54.136Z,1.29
2024-01-17T20:13:21.447Z,1.27
2024-01-17T20:15:48.838Z,1.23
2024-01-17T20:18:15.375Z,1.28
2024-01-17T20:20:41.963Z,1.18
2024-01-17T20:23:09.229Z,1.25
2024-01-17T20:25:36.539Z,1.26
2024-01-17T20:28:03.238Z,1.26
2024-01-17T20:30:29.743Z,1.26
2024-01-17T20:32:56.469Z,1.23
2024-01-17T20:35:23.002Z,1.29
2024-01-17T20:37:51.177Z,1.24
2024-01-17T20:40:18.469Z,1.27
2024-01-17T20:42:46.594Z,1.27
2024-01-17T20:45:13.158Z,1.17
2024-01-17T20:47:39.852Z,1.26
2024-01-17T20:52:34.955Z,1.30
2024-01-17T20:55:03.398Z,1.26
2024-01-17T20:57:30.140Z,1.34
2024-01-17T20:59:56.683Z,1.45
2024-01-17T21:02:24.149Z,1.35
2024-01-17T21:04:50.596Z,1.33
2024-01-17T21:07:17.071Z,1.29
2024-01-17T21:09:43.467Z,1.33
2024-01-17T21:12:10.010Z,1.47
2024-01-17T21:14:36.893Z,1.41
2024-01-17T21:17:03.475Z,1.32
2024-01-17T21:19:30.117Z,1.28
2024-01-17T21:21:56.734Z,1.40
2024-01-17T21:24:23.313Z,1.36
2024-01-17T21:26:49.931Z,1.40
2024-01-17T21:29:16.508Z,1.44
2024-01-17T21:31:43.883Z,1.45
2024-01-17T21:34:10.904Z,1.49
2024-01-17T21:36:37.718Z,1.54
2024-01-17T21:39:05.269Z,1.73
2024-01-17T21:41:32.175Z,1.70
2024-01-17T21:43:58.679Z,1.83
2024-01-17T21:46:25.192Z,2.16
2024-01-17T21:48:51.932Z,2.27
2024-01-17T21:51:18.517Z,2.29
2024-01-17T21:53:48.296Z,2.22
2024-01-17T21:56:14.926Z,2.22
2024-01-17T21:58:41.891Z,2.46
2024-01-17T22:01:09.494Z,2.23
2024-01-17T22:03:37.390Z,2.16
2024-01-17T22:06:04.648Z,1.80
2024-01-17T22:08:43.929Z,1.71
2024-01-17T22:11:18.414Z,1.71
2024-01-17T22:13:44.905Z,1.72
2024-01-17T22:16:11.526Z,1.66
2024-01-17T22:18:38.377Z,1.62
2024-01-17T22:21:05.219Z,1.63
2024-01-17T22:23:31.847Z,1.90
2024-01-17T22:25:58.265Z,1.61
2024-01-17T22:28:24.801Z,1.87
2024-01-17T22:30:51.288Z,1.94
2024-01-17T22:33:17.898Z,2.02
2024-01-17T22:35:44.516Z,1.78
2024-01-17T22:38:11.914Z,1.64
2024-01-17T22:40:38.635Z,1.91
2024-01-17T22:43:05.217Z,1.96
2024-01-17T22:45:32.055Z,2.19
2024-01-17T22:47:58.787Z,2.14
2024-01-17T22:50:25.270Z,2.08
2024-01-17T22:52:59.447Z,2.07
2024-01-17T22:55:29.431Z,2.19
2024-01-17T22:57:56.057Z,1.80
2024-01-17T23:00:22.929Z,1.88
2024-01-17T23:02:51.038Z,1.82
2024-01-17T23:05:19.126Z,1.96
2024-01-17T23:07:54.245Z,1.79
2024-01-17T23:10:27.857Z,1.75
2024-01-17T23:12:54.370Z,1.64
2024-01-17T23:15:21.071Z,1.66
2024-01-17T23:17:47.894Z,1.67
2024-01-17T23:20:14.585Z,1.75
2024-01-17T23:22:41.115Z,1.68
2024-01-17T23:25:08.811Z,1.62
2024-01-17T23:27:35.368Z,1.48
2024-01-17T23:30:01.989Z,1.38
2024-01-17T23:32:28.525Z,1.54
2024-01-17T23:34:55.116Z,1.53
2024-01-17T23:37:21.616Z,1.66
2024-01-17T23:39:48.176Z,1.49
2024-01-17T23:42:14.654Z,1.67
2024-01-17T23:44:41.137Z,1.70
2024-01-17T23:47:07.581Z,1.72
2024-01-17T23:49:34.175Z,1.96
2024-01-17T23:52:00.634Z,2.15
2024-01-17T23:54:27.136Z,2.15
2024-01-17T23:56:53.698Z,2.21
2024-01-17T23:59:20.287Z,2.31
